sensor_id;sensor_type;location;lat;lon;timestamp;pressure;altitude;pressure_sealevel;temperature;humidity
23473;BME280;11909;52.516;13.564;2023-02-28T00:01:06;102530.22;;;0.95;82.33
23473;BME280;11909;52.516;13.564;2023-02-28T00:03:35;102526.84;;;0.93;83.09
23473;BME280;11909;52.516;13.564;2023-02-28T00:06:03;102527.84;;;0.92;82.59
23473;BME280;11909;52.516;13.564;2023-02-28T00:08:32;102526.16;;;0.91;82.30
23473;BME280;11909;52.516;13.564;2023-02-28T00:11:01;102537.16;;;0.90;82.69
23473;BME280;11909;52.516;13.564;2023-02-28T00:13:29;102533.44;;;0.91;82.83
23473;BME280;11909;52.516;13.564;2023-02-28T00:16:01;102528.84;;;0.91;82.77
23473;BME280;11909;52.516;13.564;2023-02-28T00:18:29;102530.88;;;0.89;82.79
23473;BME280;11909;52.516;13.564;2023-02-28T00:20:59;102536.66;;;0.94;82.38
23473;BME280;11909;52.516;13.564;2023-02-28T00:23:27;102540.19;;;0.95;81.63
23473;BME280;11909;52.516;13.564;2023-02-28T00:25:55;102543.56;;;0.97;81.87
23473;BME280;11909;52.516;13.564;2023-02-28T00:28:23;102535.44;;;0.97;81.96
23473;BME280;11909;52.516;13.564;2023-02-28T00:30:51;102534.97;;;0.93;82.68
23473;BME280;11909;52.516;13.564;2023-02-28T00:33:19;102536.13;;;0.91;82.56
23473;BME280;11909;52.516;13.564;2023-02-28T00:35:47;102533.94;;;0.86;82.51
23473;BME280;11909;52.516;13.564;2023-02-28T00:38:16;102538.34;;;0.87;82.13
23473;BME280;11909;52.516;13.564;2023-02-28T00:40:44;102534.81;;;0.87;82.40
23473;BME280;11909;52.516;13.564;2023-02-28T00:43:11;102534.81;;;0.87;82.81
23473;BME280;11909;52.516;13.564;2023-02-28T00:45:39;102537.66;;;0.85;83.51
23473;BME280;11909;52.516;13.564;2023-02-28T00:48:07;102538.69;;;0.84;83.23
23473;BME280;11909;52.516;13.564;2023-02-28T00:50:34;102533.63;;;0.81;82.89
23473;BME280;11909;52.516;13.564;2023-02-28T00:53:02;102535.31;;;0.82;82.98
23473;BME280;11909;52.516;13.564;2023-02-28T00:55:31;102530.06;;;0.80;83.29
23473;BME280;11909;52.516;13.564;2023-02-28T00:57:59;102535.47;;;0.80;82.83
23473;BME280;11909;52.516;13.564;2023-02-28T01:00:27;102535.31;;;0.82;83.06
23473;BME280;11909;52.516;13.564;2023-02-28T01:02:54;102531.78;;;0.81;83.06
23473;BME280;11909;52.516;13.564;2023-02-28T01:05:22;102532.75;;;0.80;83.36
23473;BME280;11909;52.516;13.564;2023-02-28T01:07:50;102523.81;;;0.80;83.50
23473;BME280;11909;52.516;13.564;2023-02-28T01:10:17;102525.00;;;0.77;82.87
23473;BME280;11909;52.516;13.564;2023-02-28T01:12:48;102525.19;;;0.76;83.14
23473;BME280;11909;52.516;13.564;2023-02-28T01:15:16;102529.91;;;0.74;83.21
23473;BME280;11909;52.516;13.564;2023-02-28T01:17:43;102533.97;;;0.69;83.43
23473;BME280;11909;52.516;13.564;2023-02-28T01:20:12;102531.25;;;0.61;83.67
23473;BME280;11909;52.516;13.564;2023-02-28T01:22:39;102522.97;;;0.54;83.68
23473;BME280;11909;52.516;13.564;2023-02-28T01:25:08;102531.63;;;0.50;83.44
23473;BME280;11909;52.516;13.564;2023-02-28T01:27:35;102530.59;;;0.42;83.74
23473;BME280;11909;52.516;13.564;2023-02-28T01:30:09;102529.06;;;0.32;84.30
23473;BME280;11909;52.516;13.564;2023-02-28T01:32:37;102522.97;;;0.30;84.04
23473;BME280;11909;52.516;13.564;2023-02-28T01:35:05;102517.78;;;0.28;83.87
23473;BME280;11909;52.516;13.564;2023-02-28T01:37:33;102518.41;;;0.22;84.25
23473;BME280;11909;52.516;13.564;2023-02-28T01:40:00;102517.59;;;0.13;84.43
23473;BME280;11909;52.516;13.564;2023-02-28T01:42:28;102522.47;;;0.09;84.15
23473;BME280;11909;52.516;13.564;2023-02-28T01:45:14;102520.78;;;0.00;84.69
23473;BME280;11909;52.516;13.564;2023-02-28T01:47:46;102515.19;;;-0.07;85.06
23473;BME280;11909;52.516;13.564;2023-02-28T01:50:18;102517.03;;;-0.07;84.57
23473;BME280;11909;52.516;13.564;2023-02-28T01:52:47;102520.88;;;-0.18;84.86
23473;BME280;11909;52.516;13.564;2023-02-28T01:55:17;102527.28;;;-0.27;85.77
23473;BME280;11909;52.516;13.564;2023-02-28T01:57:48;102522.53;;;-0.34;86.18
23473;BME280;11909;52.516;13.564;2023-02-28T02:00:22;102513.44;;;-0.33;86.22
23473;BME280;11909;52.516;13.564;2023-02-28T02:02:54;102515.59;;;-0.36;86.54
23473;BME280;11909;52.516;13.564;2023-02-28T02:05:24;102511.75;;;-0.34;85.77
23473;BME280;11909;52.516;13.564;2023-02-28T02:07:55;102514.25;;;-0.40;86.31
23473;BME280;11909;52.516;13.564;2023-02-28T02:10:27;102514.56;;;-0.44;86.46
23473;BME280;11909;52.516;13.564;2023-02-28T02:13:17;102508.00;;;-0.41;86.37
23473;BME280;11909;52.516;13.564;2023-02-28T02:16:00;102507.16;;;-0.41;86.19
23473;BME280;11909;52.516;13.564;2023-02-28T02:18:36;102510.88;;;-0.42;86.60
23473;BME280;11909;52.516;13.564;2023-02-28T02:27:46;102506.28;;;-0.50;87.24
23473;BME280;11909;52.516;13.564;2023-02-28T02:36:49;102509.59;;;-0.65;87.47
23473;BME280;11909;52.516;13.564;2023-02-28T02:39:24;102502.69;;;-0.67;88.13
23473;BME280;11909;52.516;13.564;2023-02-28T02:41:59;102512.25;;;-0.73;87.92
23473;BME280;11909;52.516;13.564;2023-02-28T02:44:33;102514.97;;;-0.73;87.97
23473;BME280;11909;52.516;13.564;2023-02-28T02:47:08;102511.06;;;-0.70;87.47
23473;BME280;11909;52.516;13.564;2023-02-28T02:49:39;102505.84;;;-0.72;87.52
23473;BME280;11909;52.516;13.564;2023-02-28T02:52:14;102513.41;;;-0.76;87.58
23473;BME280;11909;52.516;13.564;2023-02-28T02:54:46;102512.72;;;-0.78;88.26
23473;BME280;11909;52.516;13.564;2023-02-28T02:57:15;102505.28;;;-0.84;88.41
23473;BME280;11909;52.516;13.564;2023-02-28T02:59:45;102517.78;;;-0.83;88.82
23473;BME280;11909;52.516;13.564;2023-02-28T03:02:17;102515.91;;;-0.82;88.56
23473;BME280;11909;52.516;13.564;2023-02-28T03:04:49;102516.06;;;-0.84;88.47
23473;BME280;11909;52.516;13.564;2023-02-28T03:07:20;102514.72;;;-0.88;88.65
23473;BME280;11909;52.516;13.564;2023-02-28T03:09:51;102506.56;;;-0.96;89.59
23473;BME280;11909;52.516;13.564;2023-02-28T03:12:20;102516.03;;;-0.92;89.38
23473;BME280;11909;52.516;13.564;2023-02-28T03:14:56;102512.50;;;-0.93;89.21
23473;BME280;11909;52.516;13.564;2023-02-28T03:17:49;102515.50;;;-0.96;89.16
23473;BME280;11909;52.516;13.564;2023-02-28T03:20:31;102519.03;;;-0.95;89.95
23473;BME280;11909;52.516;13.564;2023-02-28T03:23:10;102517.19;;;-0.95;89.59
23473;BME280;11909;52.516;13.564;2023-02-28T03:25:49;102519.34;;;-0.98;90.38
23473;BME280;11909;52.516;13.564;2023-02-28T03:28:27;102519.22;;;-0.97;90.55
23473;BME280;11909;52.516;13.564;2023-02-28T03:31:01;102526.44;;;-0.97;90.06
23473;BME280;11909;52.516;13.564;2023-02-28T03:33:38;102515.97;;;-1.01;89.70
23473;BME280;11909;52.516;13.564;2023-02-28T03:36:10;102526.41;;;-1.06;89.92
23473;BME280;11909;52.516;13.564;2023-02-28T03:38:45;102524.16;;;-1.10;90.16
23473;BME280;11909;52.516;13.564;2023-02-28T03:41:15;102513.88;;;-1.15;89.34
23473;BME280;11909;52.516;13.564;2023-02-28T03:43:49;102524.13;;;-1.19;89.73
23473;BME280;11909;52.516;13.564;2023-02-28T03:46:21;102522.69;;;-1.31;89.87
23473;BME280;11909;52.516;13.564;2023-02-28T03:48:54;102524.06;;;-1.27;90.09
23473;BME280;11909;52.516;13.564;2023-02-28T03:51:25;102526.59;;;-1.25;90.13
23473;BME280;11909;52.516;13.564;2023-02-28T03:53:58;102525.22;;;-1.30;90.29
23473;BME280;11909;52.516;13.564;2023-02-28T03:56:31;102527.38;;;-1.33;89.94
23473;BME280;11909;52.516;13.564;2023-02-28T03:59:04;102521.56;;;-1.47;91.07
23473;BME280;11909;52.516;13.564;2023-02-28T04:01:35;102526.09;;;-1.47;90.78
23473;BME280;11909;52.516;13.564;2023-02-28T04:04:05;102519.66;;;-1.54;92.81
23473;BME280;11909;52.516;13.564;2023-02-28T04:06:34;102523.66;;;-1.59;93.20
23473;BME280;11909;52.516;13.564;2023-02-28T04:09:04;102530.88;;;-1.59;92.84
23473;BME280;11909;52.516;13.564;2023-02-28T04:11:34;102531.56;;;-1.57;92.60
23473;BME280;11909;52.516;13.564;2023-02-28T04:14:03;102532.75;;;-1.60;92.93
23473;BME280;11909;52.516;13.564;2023-02-28T04:16:31;102535.72;;;-1.63;93.33
23473;BME280;11909;52.516;13.564;2023-02-28T04:19:02;102534.56;;;-1.60;92.89
23473;BME280;11909;52.516;13.564;2023-02-28T04:21:33;102528.44;;;-1.70;93.62
23473;BME280;11909;52.516;13.564;2023-02-28T04:24:03;102529.59;;;-1.73;94.60
23473;BME280;11909;52.516;13.564;2023-02-28T04:26:31;102537.78;;;-1.75;94.60
23473;BME280;11909;52.516;13.564;2023-02-28T04:29:00;102528.59;;;-1.72;93.85
23473;BME280;11909;52.516;13.564;2023-02-28T04:31:28;102532.34;;;-1.65;94.07
23473;BME280;11909;52.516;13.564;2023-02-28T04:33:56;102543.09;;;-1.65;93.36
23473;BME280;11909;52.516;13.564;2023-02-28T04:36:24;102540.41;;;-1.65;93.24
23473;BME280;11909;52.516;13.564;2023-02-28T04:38:52;102538.91;;;-1.67;93.44
23473;BME280;11909;52.516;13.564;2023-02-28T04:41:21;102540.91;;;-1.69;92.68
23473;BME280;11909;52.516;13.564;2023-02-28T04:43:50;102550.25;;;-1.74;92.30
23473;BME280;11909;52.516;13.564;2023-02-28T04:46:18;102547.34;;;-1.80;92.85
23473;BME280;11909;52.516;13.564;2023-02-28T04:48:47;102542.81;;;-1.80;92.39
23473;BME280;11909;52.516;13.564;2023-02-28T04:51:17;102540.97;;;-1.79;92.80
23473;BME280;11909;52.516;13.564;2023-02-28T04:53:45;102540.97;;;-1.79;92.97
23473;BME280;11909;52.516;13.564;2023-02-28T04:56:15;102543.97;;;-1.82;92.80
23473;BME280;11909;52.516;13.564;2023-02-28T04:58:45;102540.19;;;-1.90;92.72
23473;BME280;11909;52.516;13.564;2023-02-28T05:01:19;102549.88;;;-1.97;94.19
23473;BME280;11909;52.516;13.564;2023-02-28T05:03:48;102545.81;;;-2.01;94.89
23473;BME280;11909;52.516;13.564;2023-02-28T05:06:16;102552.31;;;-2.04;94.26
23473;BME280;11909;52.516;13.564;2023-02-28T05:08:44;102553.56;;;-1.98;94.23
23473;BME280;11909;52.516;13.564;2023-02-28T05:11:16;102552.56;;;-1.97;94.82
23473;BME280;11909;52.516;13.564;2023-02-28T05:13:46;102557.09;;;-1.97;94.25
23473;BME280;11909;52.516;13.564;2023-02-28T05:16:14;102558.94;;;-1.98;94.00
23473;BME280;11909;52.516;13.564;2023-02-28T05:18:42;102561.31;;;-1.95;94.55
23473;BME280;11909;52.516;13.564;2023-02-28T05:21:31;102560.78;;;-1.98;94.54
23473;BME280;11909;52.516;13.564;2023-02-28T05:24:01;102555.56;;;-2.00;94.35
23473;BME280;11909;52.516;13.564;2023-02-28T05:26:29;102558.41;;;-2.02;94.29
23473;BME280;11909;52.516;13.564;2023-02-28T05:28:59;102560.25;;;-2.02;94.40
23473;BME280;11909;52.516;13.564;2023-02-28T05:31:26;102560.25;;;-2.02;94.18
23473;BME280;11909;52.516;13.564;2023-02-28T05:33:55;102560.41;;;-2.04;93.69
23473;BME280;11909;52.516;13.564;2023-02-28T05:36:23;102558.56;;;-2.03;94.15
23473;BME280;11909;52.516;13.564;2023-02-28T05:38:51;102563.53;;;-2.08;93.70
23473;BME280;11909;52.516;13.564;2023-02-28T05:41:19;102571.59;;;-2.08;94.04
23473;BME280;11909;52.516;13.564;2023-02-28T05:43:47;102569.53;;;-2.14;94.57
23473;BME280;11909;52.516;13.564;2023-02-28T05:46:17;102572.66;;;-2.19;94.59
23473;BME280;11909;52.516;13.564;2023-02-28T05:48:47;102578.19;;;-2.21;95.16
23473;BME280;11909;52.516;13.564;2023-02-28T05:51:15;102577.91;;;-2.18;94.48
23473;BME280;11909;52.516;13.564;2023-02-28T05:53:43;102572.66;;;-2.19;94.97
23473;BME280;11909;52.516;13.564;2023-02-28T05:56:11;102568.13;;;-2.19;94.87
23473;BME280;11909;52.516;13.564;2023-02-28T05:58:38;102572.66;;;-2.19;94.73
23473;BME280;11909;52.516;13.564;2023-02-28T06:01:23;102576.19;;;-2.19;95.09
23473;BME280;11909;52.516;13.564;2023-02-28T06:03:51;102569.97;;;-2.19;95.20
23473;BME280;11909;52.516;13.564;2023-02-28T06:06:19;102577.19;;;-2.20;94.93
23473;BME280;11909;52.516;13.564;2023-02-28T06:08:46;102575.34;;;-2.19;94.43
23473;BME280;11909;52.516;13.564;2023-02-28T06:11:14;102581.59;;;-2.19;94.32
23473;BME280;11909;52.516;13.564;2023-02-28T06:13:42;102574.38;;;-2.18;94.20
23473;BME280;11909;52.516;13.564;2023-02-28T06:16:10;102573.50;;;-2.19;94.38
23473;BME280;11909;52.516;13.564;2023-02-28T06:18:39;102589.78;;;-2.20;94.44
23473;BME280;11909;52.516;13.564;2023-02-28T06:21:07;102590.66;;;-2.20;94.94
23473;BME280;11909;52.516;13.564;2023-02-28T06:23:35;102585.81;;;-2.16;95.11
23473;BME280;11909;52.516;13.564;2023-02-28T06:26:03;102587.66;;;-2.17;95.37
23473;BME280;11909;52.516;13.564;2023-02-28T06:28:31;102592.91;;;-2.15;94.68
23473;BME280;11909;52.516;13.564;2023-02-28T06:30:58;102589.34;;;-2.16;95.33
23473;BME280;11909;52.516;13.564;2023-02-28T06:33:26;102590.91;;;-2.13;95.54
23473;BME280;11909;52.516;13.564;2023-02-28T06:35:55;102594.59;;;-2.14;95.50
23473;BME280;11909;52.516;13.564;2023-02-28T06:38:23;102589.75;;;-2.10;95.44
23473;BME280;11909;52.516;13.564;2023-02-28T06:40:53;102607.56;;;-2.09;95.73
23473;BME280;11909;52.516;13.564;2023-02-28T06:43:20;102608.44;;;-2.09;95.34
23473;BME280;11909;52.516;13.564;2023-02-28T06:45:49;102613.50;;;-2.06;95.25
23473;BME280;11909;52.516;13.564;2023-02-28T06:48:16;102609.69;;;-2.03;94.90
23473;BME280;11909;52.516;13.564;2023-02-28T06:50:45;102604.00;;;-2.00;95.56
23473;BME280;11909;52.516;13.564;2023-02-28T06:53:14;102611.91;;;-1.98;95.74
23473;BME280;11909;52.516;13.564;2023-02-28T06:55:42;102615.84;;;-1.93;95.63
23473;BME280;11909;52.516;13.564;2023-02-28T06:58:10;102610.31;;;-1.91;95.66
23473;BME280;11909;52.516;13.564;2023-02-28T07:00:42;102620.47;;;-1.85;95.84
23473;BME280;11909;52.516;13.564;2023-02-28T07:03:10;102615.78;;;-1.83;95.66
23473;BME280;11909;52.516;13.564;2023-02-28T07:05:39;102612.78;;;-1.80;95.92
23473;BME280;11909;52.516;13.564;2023-02-28T07:08:07;102624.09;;;-1.76;96.28
23473;BME280;11909;52.516;13.564;2023-02-28T07:10:36;102619.09;;;-1.71;95.87
23473;BME280;11909;52.516;13.564;2023-02-28T07:13:05;102618.50;;;-1.65;96.93
23473;BME280;11909;52.516;13.564;2023-02-28T07:15:33;102616.03;;;-1.58;96.77
23473;BME280;11909;52.516;13.564;2023-02-28T07:18:04;102614.59;;;-1.52;96.58
23473;BME280;11909;52.516;13.564;2023-02-28T07:20:32;102613.97;;;-1.46;96.97
23473;BME280;11909;52.516;13.564;2023-02-28T07:23:00;102612.34;;;-1.39;96.46
23473;BME280;11909;52.516;13.564;2023-02-28T07:25:28;102603.50;;;-1.31;96.90
23473;BME280;11909;52.516;13.564;2023-02-28T07:27:57;102617.19;;;-1.24;96.27
23473;BME280;11909;52.516;13.564;2023-02-28T07:30:26;102622.81;;;-1.18;96.92
23473;BME280;11909;52.516;13.564;2023-02-28T07:32:54;102618.66;;;-1.12;96.96
23473;BME280;11909;52.516;13.564;2023-02-28T07:35:22;102610.78;;;-1.05;97.11
23473;BME280;11909;52.516;13.564;2023-02-28T07:37:50;102619.94;;;-0.98;97.41
23473;BME280;11909;52.516;13.564;2023-02-28T07:40:18;102623.69;;;-0.91;97.25
23473;BME280;11909;52.516;13.564;2023-02-28T07:42:46;102613.13;;;-0.84;96.88
23473;BME280;11909;52.516;13.564;2023-02-28T07:45:15;102621.25;;;-0.76;96.54
23473;BME280;11909;52.516;13.564;2023-02-28T07:47:44;102625.88;;;-0.68;95.67
23473;BME280;11909;52.516;13.564;2023-02-28T07:50:13;102622.38;;;-0.60;95.25
23473;BME280;11909;52.516;13.564;2023-02-28T07:52:42;102631.88;;;-0.48;94.06
23473;BME280;11909;52.516;13.564;2023-02-28T07:55:10;102634.63;;;-0.39;91.79
23473;BME280;11909;52.516;13.564;2023-02-28T07:57:38;102631.16;;;-0.32;90.87
23473;BME280;11909;52.516;13.564;2023-02-28T08:00:07;102639.94;;;-0.21;90.00
23473;BME280;11909;52.516;13.564;2023-02-28T08:02:38;102638.81;;;-0.10;89.44
23473;BME280;11909;52.516;13.564;2023-02-28T08:05:06;102641.25;;;0.01;87.68
23473;BME280;11909;52.516;13.564;2023-02-28T08:07:34;102647.50;;;0.10;86.27
23473;BME280;11909;52.516;13.564;2023-02-28T08:10:02;102656.31;;;0.20;84.67
23473;BME280;11909;52.516;13.564;2023-02-28T08:12:31;102662.41;;;0.31;82.69
23473;BME280;11909;52.516;13.564;2023-02-28T08:14:59;102669.22;;;0.43;79.45
23473;BME280;11909;52.516;13.564;2023-02-28T08:17:27;102670.91;;;0.52;76.58
23473;BME280;11909;52.516;13.564;2023-02-28T08:19:56;102678.53;;;0.65;75.62
23473;BME280;11909;52.516;13.564;2023-02-28T08:22:24;102678.91;;;0.79;73.76
23473;BME280;11909;52.516;13.564;2023-02-28T08:24:51;102681.44;;;0.97;70.53
23473;BME280;11909;52.516;13.564;2023-02-28T08:27:19;102682.81;;;1.09;68.99
23473;BME280;11909;52.516;13.564;2023-02-28T08:29:47;102694.63;;;1.17;67.88
23473;BME280;11909;52.516;13.564;2023-02-28T08:32:14;102691.25;;;1.23;67.35
23473;BME280;11909;52.516;13.564;2023-02-28T08:34:56;102689.56;;;1.30;66.74
23473;BME280;11909;52.516;13.564;2023-02-28T08:37:24;102702.94;;;1.40;64.10
23473;BME280;11909;52.516;13.564;2023-02-28T08:39:52;102702.91;;;1.48;65.06
23473;BME280;11909;52.516;13.564;2023-02-28T08:42:22;102703.06;;;1.55;64.93
23473;BME280;11909;52.516;13.564;2023-02-28T08:44:49;102698.81;;;1.61;65.38
23473;BME280;11909;52.516;13.564;2023-02-28T08:47:17;102705.06;;;1.69;64.97
23473;BME280;11909;52.516;13.564;2023-02-28T08:49:45;102706.09;;;1.77;65.19
23473;BME280;11909;52.516;13.564;2023-02-28T08:52:14;102711.97;;;1.89;61.87
23473;BME280;11909;52.516;13.564;2023-02-28T08:54:42;102715.00;;;1.94;60.81
23473;BME280;11909;52.516;13.564;2023-02-28T08:57:10;102710.22;;;2.04;61.04
23473;BME280;11909;52.516;13.564;2023-02-28T08:59:37;102713.22;;;2.18;60.35
23473;BME280;11909;52.516;13.564;2023-02-28T09:02:05;102726.72;;;2.26;58.29
23473;BME280;11909;52.516;13.564;2023-02-28T09:04:33;102718.22;;;2.37;58.51
23473;BME280;11909;52.516;13.564;2023-02-28T09:07:01;102720.22;;;2.43;58.84
23473;BME280;11909;52.516;13.564;2023-02-28T09:09:30;102711.69;;;2.55;58.63
23473;BME280;11909;52.516;13.564;2023-02-28T09:11:58;102727.84;;;2.71;56.76
23473;BME280;11909;52.516;13.564;2023-02-28T09:14:26;102729.75;;;2.94;54.84
23473;BME280;11909;52.516;13.564;2023-02-28T09:16:53;102739.56;;;2.95;53.54
23473;BME280;11909;52.516;13.564;2023-02-28T09:19:21;102729.69;;;3.03;54.01
23473;BME280;11909;52.516;13.564;2023-02-28T09:21:49;102733.06;;;3.28;52.43
23473;BME280;11909;52.516;13.564;2023-02-28T09:24:17;102735.72;;;3.36;51.79
23473;BME280;11909;52.516;13.564;2023-02-28T09:26:47;102731.53;;;3.49;52.43
23473;BME280;11909;52.516;13.564;2023-02-28T09:29:29;102733.22;;;3.65;51.15
23473;BME280;11909;52.516;13.564;2023-02-28T09:31:57;102739.16;;;3.83;49.49
23473;BME280;11909;52.516;13.564;2023-02-28T09:34:25;102736.72;;;4.04;47.59
23473;BME280;11909;52.516;13.564;2023-02-28T09:36:53;102741.97;;;4.20;45.98
23473;BME280;11909;52.516;13.564;2023-02-28T09:39:22;102740.78;;;4.23;46.49
23473;BME280;11909;52.516;13.564;2023-02-28T09:41:52;102749.47;;;4.33;43.80
23473;BME280;11909;52.516;13.564;2023-02-28T09:44:26;102746.66;;;4.26;45.03
23473;BME280;11909;52.516;13.564;2023-02-28T09:46:58;102751.34;;;4.33;44.39
23473;BME280;11909;52.516;13.564;2023-02-28T09:49:34;102740.84;;;4.44;46.36
23473;BME280;11909;52.516;13.564;2023-02-28T09:52:06;102739.72;;;4.76;45.83
23473;BME280;11909;52.516;13.564;2023-02-28T09:54:36;102735.34;;;4.96;45.94
23473;BME280;11909;52.516;13.564;2023-02-28T09:57:10;102742.31;;;4.99;44.75
23473;BME280;11909;52.516;13.564;2023-02-28T09:59:54;102741.25;;;5.00;44.61
23473;BME280;11909;52.516;13.564;2023-02-28T10:05:30;102741.06;;;5.23;45.02
23473;BME280;11909;52.516;13.564;2023-02-28T10:08:05;102740.72;;;5.33;45.29
23473;BME280;11909;52.516;13.564;2023-02-28T10:10:39;102742.66;;;5.39;44.74
23473;BME280;11909;52.516;13.564;2023-02-28T10:13:16;102740.25;;;5.51;45.63
23473;BME280;11909;52.516;13.564;2023-02-28T10:15:51;102735.44;;;5.53;45.58
23473;BME280;11909;52.516;13.564;2023-02-28T10:18:23;102736.75;;;5.57;46.38
23473;BME280;11909;52.516;13.564;2023-02-28T10:20:53;102735.75;;;5.65;46.55
23473;BME280;11909;52.516;13.564;2023-02-28T10:23:25;102737.00;;;5.63;44.80
23473;BME280;11909;52.516;13.564;2023-02-28T10:25:55;102727.31;;;5.60;46.19
23473;BME280;11909;52.516;13.564;2023-02-28T10:28:27;102732.88;;;5.45;44.97
23473;BME280;11909;52.516;13.564;2023-02-28T10:30:58;102739.94;;;5.39;44.64
23473;BME280;11909;52.516;13.564;2023-02-28T10:33:30;102728.84;;;5.41;45.23
23473;BME280;11909;52.516;13.564;2023-02-28T10:36:00;102736.63;;;5.44;44.30
23473;BME280;11909;52.516;13.564;2023-02-28T10:38:32;102730.44;;;5.57;45.79
23473;BME280;11909;52.516;13.564;2023-02-28T10:41:05;102727.53;;;5.58;44.93
23473;BME280;11909;52.516;13.564;2023-02-28T10:43:35;102727.63;;;5.72;47.78
23473;BME280;11909;52.516;13.564;2023-02-28T10:46:05;102722.84;;;5.81;47.39
23473;BME280;11909;52.516;13.564;2023-02-28T10:48:40;102724.41;;;5.90;46.28
23473;BME280;11909;52.516;13.564;2023-02-28T10:51:10;102723.66;;;6.03;46.70
23473;BME280;11909;52.516;13.564;2023-02-28T10:53:45;102719.03;;;6.03;46.31
23473;BME280;11909;52.516;13.564;2023-02-28T10:56:27;102712.28;;;5.99;46.48
23473;BME280;11909;52.516;13.564;2023-02-28T10:58:58;102710.22;;;6.01;47.03
23473;BME280;11909;52.516;13.564;2023-02-28T11:01:36;102706.09;;;6.12;46.77
23473;BME280;11909;52.516;13.564;2023-02-28T11:04:16;102711.63;;;6.26;43.55
23473;BME280;11909;52.516;13.564;2023-02-28T11:06:44;102702.34;;;6.20;44.50
23473;BME280;11909;52.516;13.564;2023-02-28T11:09:21;102694.78;;;6.15;44.33
23473;BME280;11909;52.516;13.564;2023-02-28T11:11:50;102692.28;;;6.14;45.73
23473;BME280;11909;52.516;13.564;2023-02-28T11:14:22;102691.22;;;6.15;45.77
23473;BME280;11909;52.516;13.564;2023-02-28T11:16:52;102689.94;;;6.11;45.14
23473;BME280;11909;52.516;13.564;2023-02-28T11:19:24;102681.97;;;6.09;44.84
23473;BME280;11909;52.516;13.564;2023-02-28T11:21:55;102683.06;;;6.22;44.72
23473;BME280;11909;52.516;13.564;2023-02-28T11:24:27;102672.81;;;6.24;46.24
23473;BME280;11909;52.516;13.564;2023-02-28T11:26:56;102675.53;;;6.24;46.16
23473;BME280;11909;52.516;13.564;2023-02-28T11:29:27;102678.91;;;6.26;44.83
23473;BME280;11909;52.516;13.564;2023-02-28T11:32:18;102681.03;;;6.37;44.45
23473;BME280;11909;52.516;13.564;2023-02-28T11:35:00;102677.00;;;6.26;45.03
23473;BME280;11909;52.516;13.564;2023-02-28T11:37:29;102676.66;;;6.43;46.30
23473;BME280;11909;52.516;13.564;2023-02-28T11:39:57;102678.53;;;6.49;45.33
23473;BME280;11909;52.516;13.564;2023-02-28T11:42:38;102690.31;;;6.56;44.83
23473;BME280;11909;52.516;13.564;2023-02-28T11:45:37;102688.88;;;6.60;43.13
23473;BME280;11909;52.516;13.564;2023-02-28T11:48:15;102680.91;;;6.66;43.84
23473;BME280;11909;52.516;13.564;2023-02-28T11:50:57;102684.69;;;6.65;45.95
23473;BME280;11909;52.516;13.564;2023-02-28T11:53:42;102684.47;;;6.73;44.00
23473;BME280;11909;52.516;13.564;2023-02-28T11:56:19;102691.84;;;6.72;42.87
23473;BME280;11909;52.516;13.564;2023-02-28T11:58:55;102691.59;;;6.54;43.37
23473;BME280;11909;52.516;13.564;2023-02-28T12:01:36;102675.66;;;6.64;45.34
23473;BME280;11909;52.516;13.564;2023-02-28T12:04:20;102683.03;;;6.77;43.44
23473;BME280;11909;52.516;13.564;2023-02-28T12:06:57;102684.28;;;6.74;43.79
23473;BME280;11909;52.516;13.564;2023-02-28T12:09:40;102682.81;;;6.79;42.74
23473;BME280;11909;52.516;13.564;2023-02-28T12:12:21;102681.97;;;6.78;41.94
23473;BME280;11909;52.516;13.564;2023-02-28T12:15:12;102672.78;;;6.99;43.40
23473;BME280;11909;52.516;13.564;2023-02-28T12:18:03;102675.09;;;7.02;42.11
23473;BME280;11909;52.516;13.564;2023-02-28T12:20:35;102670.06;;;7.06;42.51
23473;BME280;11909;52.516;13.564;2023-02-28T12:23:22;102664.59;;;7.06;42.17
23473;BME280;11909;52.516;13.564;2023-02-28T12:26:02;102664.81;;;7.18;43.25
23473;BME280;11909;52.516;13.564;2023-02-28T12:28:37;102652.81;;;7.12;41.45
23473;BME280;11909;52.516;13.564;2023-02-28T12:31:10;102665.66;;;7.05;42.34
23473;BME280;11909;52.516;13.564;2023-02-28T12:33:45;102649.69;;;6.95;42.83
23473;BME280;11909;52.516;13.564;2023-02-28T12:36:16;102639.38;;;6.84;43.14
23473;BME280;11909;52.516;13.564;2023-02-28T12:38:48;102635.81;;;6.83;42.01
23473;BME280;11909;52.516;13.564;2023-02-28T12:41:19;102652.41;;;6.88;39.97
23473;BME280;11909;52.516;13.564;2023-02-28T12:43:51;102620.47;;;6.89;43.01
23473;BME280;11909;52.516;13.564;2023-02-28T12:46:23;102621.09;;;7.05;42.85
23473;BME280;11909;52.516;13.564;2023-02-28T12:48:56;102607.88;;;7.01;42.62
23473;BME280;11909;52.516;13.564;2023-02-28T12:51:25;102615.84;;;7.03;40.94
23473;BME280;11909;52.516;13.564;2023-02-28T12:54:01;102602.19;;;7.03;42.59
23473;BME280;11909;52.516;13.564;2023-02-28T12:56:38;102600.09;;;7.12;42.52
23473;BME280;11909;52.516;13.564;2023-02-28T12:59:14;102596.31;;;7.13;42.52
23473;BME280;11909;52.516;13.564;2023-02-28T13:02:09;102592.13;;;7.17;42.56
23473;BME280;11909;52.516;13.564;2023-02-28T13:05:05;102583.91;;;7.24;42.95
23473;BME280;11909;52.516;13.564;2023-02-28T13:07:49;102584.13;;;7.09;43.40
23473;BME280;11909;52.516;13.564;2023-02-28T13:10:20;102588.16;;;7.06;42.73
23473;BME280;11909;52.516;13.564;2023-02-28T13:12:49;102590.25;;;7.04;42.27
23473;BME280;11909;52.516;13.564;2023-02-28T13:15:20;102592.53;;;6.87;41.82
23473;BME280;11909;52.516;13.564;2023-02-28T13:17:52;102590.44;;;6.96;42.26
23473;BME280;11909;52.516;13.564;2023-02-28T13:20:24;102586.03;;;6.95;43.40
23473;BME280;11909;52.516;13.564;2023-02-28T13:22:53;102583.31;;;7.01;42.27